createdAt,value
2022-09-11T00:01:14.719Z,218
2022-09-11T00:03:15.944Z,218
2022-09-11T00:05:17.634Z,218
2022-09-11T00:07:19.388Z,218
2022-09-11T00:09:20.575Z,200
2022-09-11T00:11:22.094Z,202
2022-09-11T00:13:23.848Z,202
2022-09-11T00:15:25.321Z,207
2022-09-11T00:19:27.749Z,276
2022-09-11T00:21:29.288Z,276
2022-09-11T00:25:31.521Z,267
2022-09-11T00:29:34.850Z,267
2022-09-11T00:31:36.501Z,196
2022-09-11T00:33:37.475Z,212
2022-09-11T00:35:39.060Z,360
2022-09-11T00:39:42.146Z,251
2022-09-11T00:41:43.576Z,251
2022-09-11T00:43:45.094Z,307
2022-09-11T00:45:46.720Z,307
2022-09-11T00:51:50.943Z,234
2022-09-11T00:53:52.108Z,234
2022-09-11T00:57:54.120Z,192
2022-09-11T00:59:55.652Z,192
2022-09-11T01:01:57.591Z,232
2022-09-11T01:03:58.984Z,232
2022-09-11T01:05:59.866Z,229
2022-09-11T01:08:01.675Z,229
2022-09-11T01:12:04.890Z,230
2022-09-11T01:14:06.223Z,230
2022-09-11T01:18:09.606Z,345
2022-09-11T01:20:10.972Z,259
2022-09-11T01:24:13.592Z,259
2022-09-11T01:28:24.392Z,267
2022-09-11T01:30:17.910Z,254
2022-09-11T01:32:19.257Z,233
2022-09-11T01:34:20.484Z,233
2022-09-11T01:38:23.377Z,232
2022-09-11T01:40:25.190Z,232
2022-09-11T01:42:26.670Z,232
2022-09-11T01:44:27.985Z,236
2022-09-11T01:50:31.993Z,238
2022-09-11T01:52:33.623Z,236
2022-09-11T01:54:35.292Z,244
2022-09-11T01:56:37.147Z,246
2022-09-11T02:00:40.289Z,230
2022-09-11T02:02:41.519Z,234
2022-09-11T02:04:43.030Z,234
2022-09-11T02:06:44.689Z,262
2022-09-11T02:10:46.951Z,262
2022-09-11T02:12:48.600Z,269
2022-09-11T02:14:50.151Z,265
2022-09-11T02:16:51.898Z,260
2022-09-11T02:18:53.293Z,261
2022-09-11T02:20:55.074Z,251
2022-09-11T02:22:56.651Z,269
2022-09-11T02:24:58.216Z,269
2022-09-11T02:26:59.772Z,236
2022-09-11T02:31:01.993Z,224
2022-09-11T02:33:03.829Z,227
2022-09-11T02:35:05.333Z,246
2022-09-11T02:37:07.058Z,242
2022-09-11T02:39:08.390Z,242
2022-09-11T02:43:10.740Z,242
2022-09-11T02:45:12.180Z,242
2022-09-11T02:47:13.812Z,242
2022-09-11T02:49:15.240Z,242
2022-09-11T02:53:18.175Z,242
2022-09-11T02:55:19.859Z,233
2022-09-11T02:57:21.510Z,233
2022-09-11T02:59:22.650Z,233
2022-09-11T03:01:24.524Z,233
2022-09-11T03:03:25.706Z,233
2022-09-11T03:05:27.240Z,236
2022-09-11T03:07:28.824Z,236
2022-09-11T03:09:30.475Z,236
2022-09-11T03:11:31.394Z,236
2022-09-11T03:13:33.290Z,236
2022-09-11T03:15:34.384Z,236
2022-09-11T03:17:35.462Z,236
2022-09-11T03:19:36.691Z,236
2022-09-11T03:21:38.238Z,236
2022-09-11T03:25:41.580Z,236
2022-09-11T03:27:43.193Z,236
2022-09-11T03:29:44.357Z,236
2022-09-11T03:31:46.049Z,236
2022-09-11T03:33:47.002Z,236
2022-09-11T03:35:48.825Z,236
2022-09-11T03:37:50.494Z,236
2022-09-11T03:39:51.653Z,236
2022-09-11T03:40:35.373Z,236
2022-09-11T03:42:36.442Z,236
2022-09-11T03:44:37.858Z,236
2022-09-11T03:46:38.784Z,236
2022-09-11T03:48:40.142Z,236
2022-09-11T03:50:41.494Z,236
2022-09-11T03:52:42.659Z,236
2022-09-11T03:56:45.426Z,236
2022-09-11T03:58:47.194Z,236
2022-09-11T04:02:50.386Z,236
2022-09-11T04:04:51.856Z,236
2022-09-11T04:06:53.491Z,236
2022-09-11T04:08:55.218Z,236
2022-09-11T04:10:56.610Z,236
2022-09-11T04:12:58.485Z,236
2022-09-11T04:14:59.893Z,236
2022-09-11T04:17:01.392Z,220
2022-09-11T04:23:04.314Z,360
2022-09-11T04:25:06.169Z,219
2022-09-11T04:29:08.461Z,219
2022-09-11T04:33:11.632Z,219
2022-09-11T04:35:12.749Z,219
2022-09-11T04:39:15.292Z,219
2022-09-11T04:41:16.199Z,219
2022-09-11T04:43:17.461Z,219
2022-09-11T04:45:18.760Z,219
2022-09-11T04:47:20.098Z,219
2022-09-11T04:49:21.364Z,219
2022-09-11T04:51:22.693Z,219
2022-09-11T04:53:23.976Z,219
2022-09-11T04:55:25.399Z,218
2022-09-11T04:57:26.651Z,218
2022-09-11T04:59:27.863Z,218
2022-09-11T05:03:30.674Z,218
2022-09-11T05:05:32.250Z,218
2022-09-11T05:07:33.799Z,218
2022-09-11T05:11:36.539Z,218
2022-09-11T05:13:38.060Z,218
2022-09-11T05:17:40.149Z,218
2022-09-11T05:21:43.083Z,218
2022-09-11T05:23:44.220Z,218
2022-09-11T05:25:45.165Z,218
2022-09-11T05:27:46.529Z,218
2022-09-11T05:29:47.911Z,218
2022-09-11T05:31:49.564Z,218
2022-09-11T05:33:50.710Z,218
2022-09-11T05:35:52.304Z,218
2022-09-11T05:37:53.344Z,218
2022-09-11T05:39:55.169Z,218
2022-09-11T05:43:58.593Z,218
2022-09-11T05:45:59.560Z,218
2022-09-11T05:48:01.324Z,218
2022-09-11T05:50:03.088Z,218
2022-09-11T05:52:04.892Z,218
2022-09-11T05:54:06.213Z,218
2022-09-11T05:56:07.477Z,218
2022-09-11T06:00:09.652Z,218
2022-09-11T06:04:12.617Z,218
2022-09-11T06:06:14.244Z,218
2022-09-11T06:10:16.471Z,218
2022-09-11T06:12:17.414Z,218
2022-09-11T06:16:19.736Z,218
2022-09-11T06:18:20.668Z,219
2022-09-11T06:20:22.442Z,218
2022-09-11T06:24:25.201Z,218
2022-09-11T06:26:26.921Z,219
2022-09-11T06:30:29.996Z,219
2022-09-11T06:32:31.181Z,219
2022-09-11T06:34:32.945Z,219
2022-09-11T06:38:35.407Z,219
2022-09-11T06:42:38.011Z,219
2022-09-11T06:44:39.464Z,219
2022-09-11T06:46:41.206Z,218
2022-09-11T06:48:42.553Z,218
2022-09-11T06:50:43.452Z,219
2022-09-11T06:52:44.964Z,219
2022-09-11T06:54:46.571Z,219
2022-09-11T06:58:48.923Z,219
2022-09-11T07:00:50.371Z,219
2022-09-11T07:02:51.264Z,219
2022-09-11T07:06:54.182Z,218
2022-09-11T07:08:55.214Z,218
2022-09-11T07:10:56.929Z,219
2022-09-11T07:12:57.840Z,218
2022-09-11T07:14:59.669Z,219
2022-09-11T07:17:01.373Z,218
2022-09-11T07:19:02.466Z,218
2022-09-11T07:23:05.212Z,226
2022-09-11T07:27:07.918Z,226
2022-09-11T07:29:09.157Z,171
2022-09-11T07:31:10.091Z,171
2022-09-11T07:33:11.099Z,171
2022-09-11T07:37:14.465Z,211
2022-09-11T07:41:17.111Z,211
2022-09-11T07:43:18.620Z,211
2022-09-11T07:45:22.681Z,211
2022-09-11T07:47:21.457Z,264
2022-09-11T07:49:23.183Z,270
2022-09-11T07:53:26.587Z,354
2022-09-11T07:55:27.485Z,354
2022-09-11T07:59:30.798Z,354
2022-09-11T08:01:31.954Z,350
2022-09-11T08:03:33.646Z,350
2022-09-11T08:05:34.608Z,312
2022-09-11T08:07:35.762Z,312
2022-09-11T08:09:37.225Z,221
2022-09-11T08:13:39.857Z,235
2022-09-11T08:15:41.254Z,167
2022-09-11T08:17:42.773Z,262
2022-09-11T08:19:44.178Z,242
2022-09-11T08:21:45.618Z,242
2022-09-11T08:23:46.983Z,242
2022-09-11T08:25:48.734Z,242
2022-09-11T08:27:50.407Z,242
2022-09-11T08:29:51.649Z,242
2022-09-11T08:31:53.125Z,242
2022-09-11T08:35:55.385Z,242
2022-09-11T08:37:56.465Z,242
2022-09-11T08:39:57.893Z,350
2022-09-11T08:41:59.378Z,350
2022-09-11T08:46:01.873Z,350
2022-09-11T08:48:03.440Z,233
2022-09-11T08:52:06.389Z,318
2022-09-11T08:54:08.018Z,245
2022-09-11T08:56:09.434Z,245
2022-09-11T08:58:10.282Z,190
2022-09-11T09:00:11.452Z,193
2022-09-11T09:02:12.416Z,214
2022-09-11T09:06:15.482Z,213
2022-09-11T09:08:16.920Z,215
2022-09-11T09:12:19.095Z,336
2022-09-11T09:14:20.564Z,336
2022-09-11T09:18:23.321Z,336
2022-09-11T09:20:25.011Z,336
2022-09-11T09:22:26.148Z,334
2022-09-11T09:24:27.319Z,334
2022-09-11T09:26:28.923Z,334
2022-09-11T09:28:29.846Z,334
2022-09-11T09:30:31.081Z,334
2022-09-11T09:32:32.534Z,334
2022-09-11T09:36:35.685Z,334
2022-09-11T09:38:36.441Z,235
2022-09-11T09:40:46.605Z,210
2022-09-11T09:46:41.750Z,229
2022-09-11T09:48:43.483Z,227
2022-09-11T09:50:44.927Z,227
2022-09-11T09:52:46.523Z,240
2022-09-11T09:54:48.300Z,224
2022-09-11T09:56:49.725Z,212
2022-09-11T09:58:51.261Z,229
2022-09-11T10:00:52.535Z,231
2022-09-11T10:02:54.434Z,223
2022-09-11T10:04:55.279Z,224
2022-09-11T10:06:56.322Z,224
2022-09-11T10:09:01.357Z,224
2022-09-11T10:10:59.277Z,224
2022-09-11T10:13:17.942Z,224
2022-09-11T10:17:03.724Z,224
2022-09-11T10:19:04.663Z,224
2022-09-11T10:23:07.747Z,19
2022-09-11T10:25:08.789Z,19
2022-09-11T10:25:52.470Z,19
2022-09-11T10:29:56.051Z,19
2022-09-11T10:31:57.199Z,19
2022-09-11T10:33:58.115Z,19
2022-09-11T10:40:02.712Z,225
2022-09-11T10:42:03.686Z,353
2022-09-11T10:44:04.701Z,356
2022-09-11T10:46:06.226Z,356
2022-09-11T10:48:07.471Z,353
2022-09-11T10:50:08.768Z,11
2022-09-11T10:52:09.746Z,18
2022-09-11T10:54:11.131Z,18
2022-09-11T10:56:12.331Z,237
2022-09-11T10:58:13.586Z,256
2022-09-11T11:04:17.689Z,187
2022-09-11T11:06:18.743Z,223
2022-09-11T11:08:20.419Z,269
2022-09-11T11:10:22.231Z,319
2022-09-11T11:14:24.615Z,1
2022-09-11T11:16:25.366Z,14
2022-09-11T11:20:28.657Z,222
2022-09-11T11:24:30.785Z,216
2022-09-11T11:26:32.199Z,226
2022-09-11T11:30:34.564Z,240
2022-09-11T11:32:35.729Z,240
2022-09-11T11:34:37.287Z,224
2022-09-11T11:36:38.913Z,263
2022-09-11T11:38:39.907Z,208
2022-09-11T11:40:41.167Z,172
2022-09-11T11:44:44.075Z,253
2022-09-11T11:46:45.016Z,199
2022-09-11T11:48:46.257Z,7
2022-09-11T11:50:47.659Z,252
2022-09-11T11:52:48.991Z,177
2022-09-11T11:54:50.537Z,337
2022-09-11T11:58:53.210Z,338
2022-09-11T12:02:55.667Z,180
2022-09-11T12:04:56.606Z,23
2022-09-11T12:06:58.045Z,23
2022-09-11T12:08:59.696Z,360
2022-09-11T12:11:00.892Z,18
2022-09-11T12:13:02.187Z,18
2022-09-11T12:15:03.334Z,217
2022-09-11T12:17:04.189Z,132
2022-09-11T12:19:05.649Z,132
2022-09-11T12:21:06.976Z,342
2022-09-11T12:23:07.935Z,342
2022-09-11T12:25:08.959Z,341
2022-09-11T12:27:11.744Z,138
2022-09-11T12:29:11.581Z,265
2022-09-11T12:31:12.917Z,230
2022-09-11T12:35:15.058Z,230
2022-09-11T12:37:16.627Z,337
2022-09-11T12:39:18.394Z,337
2022-09-11T12:41:19.602Z,4
2022-09-11T12:43:20.886Z,4
2022-09-11T12:47:22.683Z,4
2022-09-11T12:49:23.887Z,4
2022-09-11T12:51:24.789Z,4
2022-09-11T12:55:27.585Z,4
2022-09-11T12:57:29.161Z,4
2022-09-11T12:59:30.610Z,4
2022-09-11T13:05:34.605Z,1
2022-09-11T13:07:36.001Z,1
2022-09-11T13:11:38.139Z,1
2022-09-11T13:13:39.098Z,3
2022-09-11T13:15:40.301Z,354
2022-09-11T13:17:42.031Z,354
2022-09-11T13:21:44.193Z,354
2022-09-11T13:23:45.820Z,354
2022-09-11T13:25:46.816Z,354
2022-09-11T13:27:47.944Z,354
2022-09-11T13:31:50.910Z,354
2022-09-11T13:33:52.482Z,354
2022-09-11T13:35:53.717Z,354
2022-09-11T13:37:55.170Z,354
2022-09-11T13:39:56.108Z,352
2022-09-11T13:43:58.557Z,351
2022-09-11T13:45:59.772Z,351
2022-09-11T13:48:00.686Z,351
2022-09-11T13:50:01.676Z,351
2022-09-11T13:52:03.025Z,351
2022-09-11T13:54:04.141Z,351
2022-09-11T13:56:05.465Z,351
2022-09-11T13:58:07.031Z,351
2022-09-11T14:00:07.963Z,351
2022-09-11T14:04:10.394Z,351
2022-09-11T14:06:11.385Z,351
2022-09-11T14:08:12.491Z,351
2022-09-11T14:10:14.136Z,351
2022-09-11T14:12:15.044Z,351
2022-09-11T14:16:18.102Z,351
2022-09-11T14:18:19.241Z,351
2022-09-11T14:22:21.784Z,351
2022-09-11T14:24:23.284Z,352
2022-09-11T14:26:24.230Z,352
2022-09-11T14:28:25.465Z,351
2022-09-11T14:32:27.625Z,352
2022-09-11T14:36:30.765Z,352
2022-09-11T14:38:32.204Z,351
2022-09-11T14:40:33.673Z,301
2022-09-11T14:48:38.765Z,301
2022-09-11T14:50:40.124Z,301
2022-09-11T14:52:41.822Z,309
2022-09-11T14:54:43.142Z,303
2022-09-11T14:56:44.347Z,303
2022-09-11T14:58:45.818Z,303
2022-09-11T15:00:46.927Z,167
2022-09-11T15:02:47.884Z,167
2022-09-11T15:04:49.534Z,167
2022-09-11T15:06:50.933Z,167
2022-09-11T15:08:52.466Z,167
2022-09-11T15:10:53.893Z,167
2022-09-11T15:12:55.215Z,167
2022-09-11T15:16:58.004Z,167
2022-09-11T15:18:59.666Z,167
2022-09-11T15:21:00.958Z,198
2022-09-11T15:25:03.672Z,242
2022-09-11T15:27:04.857Z,82
2022-09-11T15:29:06.426Z,82
2022-09-11T15:31:07.810Z,337
2022-09-11T15:33:09.097Z,27
2022-09-11T15:35:09.928Z,27
2022-09-11T15:37:11.594Z,10
2022-09-11T15:39:12.859Z,10
2022-09-11T15:41:13.946Z,11
2022-09-11T15:43:14.937Z,11
2022-09-11T15:45:16.729Z,11
2022-09-11T15:47:18.165Z,11
2022-09-11T15:49:19.496Z,11
2022-09-11T15:51:20.585Z,11
2022-09-11T15:53:30.078Z,11
2022-09-11T15:57:24.964Z,251
2022-09-11T15:59:26.561Z,251
2022-09-11T16:03:29.734Z,251
2022-09-11T16:05:30.763Z,251
2022-09-11T16:07:31.754Z,251
2022-09-11T16:09:33.422Z,208
2022-09-11T16:13:36.792Z,208
2022-09-11T16:15:37.743Z,208
2022-09-11T16:17:38.935Z,208
2022-09-11T16:19:39.896Z,208
2022-09-11T16:21:41.578Z,208
2022-09-11T16:25:43.746Z,335
2022-09-11T16:27:44.777Z,335
2022-09-11T16:30:20.543Z,233
2022-09-11T16:31:47.467Z,243
2022-09-11T16:35:49.841Z,244
2022-09-11T16:37:51.414Z,244
2022-09-11T16:39:52.493Z,244
2022-09-11T16:45:56.757Z,244
2022-09-11T16:47:57.525Z,244
2022-09-11T16:50:07.218Z,244
2022-09-11T16:51:59.505Z,244
2022-09-11T16:56:01.853Z,247
2022-09-11T16:58:02.859Z,247
2022-09-11T17:00:03.999Z,247
2022-09-11T17:02:05.738Z,247
2022-09-11T17:04:07.405Z,247
2022-09-11T17:06:08.975Z,247
2022-09-11T17:08:10.287Z,315
2022-09-11T17:10:11.340Z,315
2022-09-11T17:12:12.579Z,316
2022-09-11T17:12:56.333Z,316
2022-09-11T17:14:58.090Z,316
2022-09-11T17:16:59.510Z,315
2022-09-11T17:19:00.962Z,315
2022-09-11T17:21:01.906Z,315
2022-09-11T17:23:02.845Z,315
2022-09-11T17:25:04.447Z,315
2022-09-11T17:27:05.516Z,315
2022-09-11T17:29:07.356Z,315
2022-09-11T17:31:08.424Z,315
2022-09-11T17:33:09.816Z,315
2022-09-11T17:39:14.093Z,315
2022-09-11T17:41:15.468Z,315
2022-09-11T17:43:17.058Z,315
2022-09-11T17:45:18.692Z,315
2022-09-11T17:49:20.980Z,315
2022-09-11T17:51:22.373Z,315
2022-09-11T17:53:23.688Z,315
2022-09-11T17:55:24.712Z,315
2022-09-11T17:59:27.038Z,315
2022-09-11T18:03:30.075Z,315
2022-09-11T18:05:31.023Z,315
2022-09-11T18:09:34.338Z,315
2022-09-11T18:11:35.755Z,315
2022-09-11T18:13:36.700Z,315
2022-09-11T18:15:38.588Z,314
2022-09-11T18:21:44.664Z,315
2022-09-11T18:23:43.537Z,315
2022-09-11T18:25:44.529Z,315
2022-09-11T18:27:45.891Z,314
2022-09-11T18:31:49.849Z,314
2022-09-11T18:33:49.970Z,315
2022-09-11T18:35:50.864Z,314
2022-09-11T18:41:54.731Z,314
2022-09-11T18:43:56.182Z,314
2022-09-11T18:45:59.328Z,314
2022-09-11T18:48:00.045Z,314
2022-09-11T18:50:00.409Z,314
2022-09-11T18:52:01.861Z,314
2022-09-11T18:54:03.127Z,314
2022-09-11T18:56:04.967Z,314
2022-09-11T18:58:06.567Z,314
2022-09-11T19:00:07.596Z,314
2022-09-11T19:02:08.874Z,314
2022-09-11T19:04:10.270Z,314
2022-09-11T19:06:11.335Z,314
2022-09-11T19:08:12.461Z,314
2022-09-11T19:10:14.318Z,314
2022-09-11T19:12:15.434Z,314
2022-09-11T19:14:16.949Z,314
2022-09-11T19:16:18.634Z,314
2022-09-11T19:18:19.548Z,314
2022-09-11T19:22:22.712Z,314
2022-09-11T19:24:24.505Z,314
2022-09-11T19:26:26.047Z,314
2022-09-11T19:30:29.654Z,314
2022-09-11T19:34:34.076Z,314
2022-09-11T19:36:32.844Z,314
2022-09-11T19:38:33.987Z,314
2022-09-11T19:40:35.823Z,314
2022-09-11T19:44:37.853Z,314
2022-09-11T19:46:39.679Z,314
2022-09-11T19:48:41.533Z,314
2022-09-11T19:50:42.886Z,314
2022-09-11T19:52:44.433Z,314
2022-09-11T19:54:46.169Z,314
2022-09-11T19:56:47.306Z,314
2022-09-11T19:58:48.594Z,314
2022-09-11T20:00:50.460Z,314
2022-09-11T20:02:52.306Z,314
2022-09-11T20:06:54.657Z,314
2022-09-11T20:09:07.915Z,314
2022-09-11T20:13:00.426Z,314
2022-09-11T20:17:01.730Z,314
2022-09-11T20:19:03.194Z,314
2022-09-11T20:23:06.726Z,314
2022-09-11T20:25:08.249Z,314
2022-09-11T20:27:10.032Z,314
2022-09-11T20:29:11.781Z,314
2022-09-11T20:31:12.939Z,314
2022-09-11T20:33:14.480Z,314
2022-09-11T20:35:16.088Z,314
2022-09-11T20:37:17.546Z,314
2022-09-11T20:39:18.745Z,314
2022-09-11T20:45:22.860Z,314
2022-09-11T20:47:23.876Z,314
2022-09-11T20:49:25.538Z,314
2022-09-11T20:51:26.480Z,314
2022-09-11T20:55:28.727Z,314
2022-09-11T20:57:30.167Z,314
2022-09-11T20:59:31.394Z,314
2022-09-11T21:01:33.303Z,314
2022-09-11T21:05:36.254Z,314
2022-09-11T21:07:37.642Z,314
2022-09-11T21:09:39.401Z,314
2022-09-11T21:11:40.924Z,314
2022-09-11T21:13:42.763Z,314
2022-09-11T21:15:43.720Z,314
2022-09-11T21:17:44.736Z,314
2022-09-11T21:19:46.068Z,314
2022-09-11T21:21:47.538Z,314
2022-09-11T21:23:49.147Z,314
2022-09-11T21:25:52.627Z,314
2022-09-11T21:27:51.691Z,314
2022-09-11T21:29:53.286Z,314
2022-09-11T21:31:54.236Z,314
2022-09-11T21:33:55.358Z,314
2022-09-11T21:37:58.265Z,314
2022-09-11T21:40:00.128Z,314
2022-09-11T21:42:01.822Z,314
2022-09-11T21:44:03.284Z,314
2022-09-11T21:46:04.466Z,314
2022-09-11T21:48:05.557Z,314
2022-09-11T21:50:06.908Z,314
2022-09-11T21:52:08.323Z,314
2022-09-11T21:58:12.660Z,314
2022-09-11T22:00:13.708Z,314
2022-09-11T22:02:15.249Z,314
2022-09-11T22:04:16.660Z,314
2022-09-11T22:10:21.234Z,314
2022-09-11T22:12:22.229Z,314
2022-09-11T22:14:23.442Z,314
2022-09-11T22:16:24.679Z,314
2022-09-11T22:20:27.880Z,314
2022-09-11T22:22:29.527Z,314
2022-09-11T22:24:30.919Z,314
2022-09-11T22:26:32.175Z,314
2022-09-11T22:30:34.098Z,314
2022-09-11T22:32:35.622Z,314
2022-09-11T22:36:38.607Z,314
2022-09-11T22:40:41.759Z,314
2022-09-11T22:42:42.845Z,314
2022-09-11T22:46:48.804Z,314
2022-09-11T22:50:48.980Z,314
2022-09-11T22:52:57.964Z,314
2022-09-11T22:54:51.651Z,314
2022-09-11T22:56:53.004Z,314
2022-09-11T22:58:54.358Z,314
2022-09-11T23:00:56.146Z,314
2022-09-11T23:04:58.945Z,314
2022-09-11T23:06:59.920Z,314
2022-09-11T23:09:01.529Z,314
2022-09-11T23:11:02.512Z,314
2022-09-11T23:15:05.404Z,314
2022-09-11T23:19:07.832Z,314
2022-09-11T23:21:09.600Z,314
2022-09-11T23:23:11.526Z,314
2022-09-11T23:25:13.444Z,314
2022-09-11T23:27:15.287Z,314
2022-09-11T23:31:18.493Z,314
2022-09-11T23:35:21.308Z,314
2022-09-11T23:37:22.555Z,314
2022-09-11T23:39:24.095Z,314
2022-09-11T23:41:25.923Z,314
2022-09-11T23:43:26.963Z,314
2022-09-11T23:45:27.985Z,314
2022-09-11T23:47:29.292Z,314
2022-09-11T23:49:34.333Z,314
2022-09-11T23:51:32.293Z,314
2022-09-11T23:53:33.605Z,314
2022-09-11T23:55:37.007Z,314
2022-09-11T23:57:36.485Z,314
